River Elbe — 3FWL6 — position and weather

sailwx.info

Track history (hours):
 
Tides and Currents Weather Stations Pressure Air Temp Water Temp Dewpoint Dewpoint Depression Visibility Wind Speed Wind Dir Waves Ship Positions

River Elbe

Last reported at 2018-Feb-16 18:40 UTC. Time now 2018-Feb-19 00:25 UTC.
Position N 32°56' E 034°38'.

Length 89 m; draft 5.4 m.

Type: Cargo ship. MMSI: 351895000.

Date/timePositionNaut miles runAvg speedWind from/ knotsBaromVisibWave heightAir tempDewpointWater temp
2018-Feb-16 18:40N 32°56' E 034°38'2 8.7
2018-Feb-16 18:28N 32°56' E 034°40'4 8.9
2018-Feb-16 18:00N 32°55' E 034°45'5 8.9
2018-Feb-16 17:30N 32°54' E 034°50'5 9.0
2018-Feb-16 16:58N 32°53' E 034°56'  
2018-Feb-14 09:00N 32°51' E 035°01'1 0.1
2018-Feb-13 23:53N 32°51' E 034°60'0 0.0
2018-Feb-13 19:35N 32°51' E 034°60'0 1.3
2018-Feb-13 19:27N 32°51' E 034°60'3 6.4
2018-Feb-13 19:00N 32°52' E 034°57'4 7.3
2018-Feb-13 18:28N 32°54' E 034°52'3 7.6
2018-Feb-13 18:00N 32°55' E 034°48'  
Track history (hours):
 
Tides and Currents Weather Stations Pressure Air Temp Water Temp Dewpoint Dewpoint Depression Visibility Wind Speed Wind Dir Waves Ship Positions

River Elbe

Last reported at 2018-Feb-16 18:40 UTC. Time now 2018-Feb-19 00:25 UTC.
Position N 32°56' E 034°38'.

Length 89 m; draft 5.4 m.

Type: Cargo ship. MMSI: 351895000.

Date/timePositionNaut miles runAvg speedWind from/ knotsBaromVisibWave heightAir tempDewpointWater temp
2018-Feb-16 18:40N 32°56' E 034°38'2 8.7
2018-Feb-16 18:28N 32°56' E 034°40'4 8.9
2018-Feb-16 18:00N 32°55' E 034°45'5 8.9
2018-Feb-16 17:30N 32°54' E 034°50'5 9.0
2018-Feb-16 16:58N 32°53' E 034°56'  
2018-Feb-14 09:00N 32°51' E 035°01'1 0.1
2018-Feb-13 23:53N 32°51' E 034°60'0 0.0
2018-Feb-13 19:35N 32°51' E 034°60'0 1.3
2018-Feb-13 19:27N 32°51' E 034°60'3 6.4
2018-Feb-13 19:00N 32°52' E 034°57'4 7.3
2018-Feb-13 18:28N 32°54' E 034°52'3 7.6
2018-Feb-13 18:00N 32°55' E 034°48'  

Dump ship's entire track history